createdAt,value
2018-05-17T00:00:18.490Z,14.67
2018-05-17T00:01:28.362Z,14.75
2018-05-17T00:02:38.229Z,14.63
2018-05-17T00:03:48.360Z,14.65
2018-05-17T00:04:58.484Z,14.67
2018-05-17T00:06:08.695Z,14.66
2018-05-17T00:07:18.501Z,14.63
2018-05-17T00:08:28.616Z,14.67
2018-05-17T00:09:38.768Z,14.58
2018-05-17T00:10:48.948Z,14.62
2018-05-17T00:11:59.197Z,14.54
2018-05-17T00:13:09.428Z,14.5
2018-05-17T00:14:19.624Z,14.56
2018-05-17T00:15:29.803Z,14.5
2018-05-17T00:16:39.965Z,14.58
2018-05-17T00:17:50.109Z,14.5
2018-05-17T00:19:00.273Z,14.56
2018-05-17T00:20:10.156Z,14.52
2018-05-17T00:21:20.295Z,14.54
2018-05-17T00:22:30.417Z,14.48
2018-05-17T00:23:40.562Z,14.52
2018-05-17T00:24:50.515Z,14.36
2018-05-17T00:26:00.647Z,14.36
2018-05-17T00:27:10.818Z,14.39
2018-05-17T00:28:20.970Z,14.43
2018-05-17T00:29:30.869Z,14.39
2018-05-17T00:30:40.833Z,14.45
2018-05-17T00:31:51.010Z,14.34
2018-05-17T00:33:01.321Z,14.45
2018-05-17T00:34:11.204Z,14.39
2018-05-17T00:35:21.370Z,14.39
2018-05-17T00:36:31.515Z,14.39
2018-05-17T00:37:41.690Z,14.36
2018-05-17T00:38:51.904Z,14.24
2018-05-17T00:40:02.187Z,14.25
2018-05-17T00:41:12.372Z,14.37
2018-05-17T00:42:22.540Z,14.26
2018-05-17T00:43:32.696Z,14.24
2018-05-17T00:44:42.613Z,14.37
2018-05-17T00:45:52.741Z,14.43
2018-05-17T00:47:02.967Z,14.34
2018-05-17T00:48:13.140Z,14.43
2018-05-17T00:49:23.328Z,14.44
2018-05-17T00:50:33.488Z,14.44
2018-05-17T00:51:43.395Z,14.44
2018-05-17T00:52:53.598Z,14.37
2018-05-17T00:54:03.868Z,14.52
2018-05-17T00:55:14.006Z,14.52
2018-05-17T00:56:24.248Z,14.39
2018-05-17T00:57:34.249Z,14.4
2018-05-17T00:58:44.403Z,14.5
2018-05-17T00:59:54.531Z,14.51
2018-05-17T01:01:04.691Z,14.54
2018-05-17T01:02:14.839Z,14.52
2018-05-17T01:03:25.083Z,14.47
2018-05-17T01:04:35.274Z,14.56
2018-05-17T01:05:45.492Z,14.52
2018-05-17T01:06:55.672Z,14.5
2018-05-17T01:08:05.878Z,14.54
2018-05-17T01:09:16.043Z,14.54
2018-05-17T01:10:26.044Z,14.52
2018-05-17T01:11:36.224Z,14.52
2018-05-17T01:12:46.466Z,14.5
2018-05-17T01:13:56.635Z,14.5
2018-05-17T01:15:06.784Z,14.52
2018-05-17T01:16:16.411Z,14.45
2018-05-17T01:17:26.766Z,14.5
2018-05-17T01:18:36.963Z,14.52
2018-05-17T01:19:47.146Z,14.5
2018-05-17T01:20:57.313Z,14.43
2018-05-17T01:22:07.469Z,14.4
2018-05-17T01:23:17.591Z,14.34
2018-05-17T01:24:27.765Z,14.34
2018-05-17T01:25:37.898Z,14.44
2018-05-17T01:26:48.128Z,14.39
2018-05-17T01:27:58.277Z,14.4
2018-05-17T01:29:08.557Z,14.26
2018-05-17T01:30:18.781Z,14.34
2018-05-17T01:31:28.328Z,14.22
2018-05-17T01:32:38.464Z,14.22
2018-05-17T01:33:48.609Z,14.22
2018-05-17T01:34:58.981Z,14.19
2018-05-17T01:36:09.393Z,14.19
2018-05-17T01:37:19.358Z,14.18
2018-05-17T01:38:29.534Z,14.14
2018-05-17T01:39:39.679Z,14.21
2018-05-17T01:40:49.812Z,14.11
2018-05-17T01:42:00.047Z,14.18
2018-05-17T01:43:10.350Z,14.1
2018-05-17T01:44:20.495Z,14.07
2018-05-17T01:45:30.407Z,14.1
2018-05-17T01:46:40.532Z,14.13
2018-05-17T01:47:50.712Z,14.07
2018-05-17T01:49:00.879Z,14.19
2018-05-17T01:50:10.825Z,14.1
2018-05-17T01:51:20.948Z,14.13
2018-05-17T01:52:31.095Z,14
2018-05-17T01:53:41.257Z,13.96
2018-05-17T01:54:51.407Z,14.02
2018-05-17T01:56:01.591Z,14.03
2018-05-17T01:57:11.771Z,14.03
2018-05-17T01:58:21.789Z,13.92
2018-05-17T01:59:31.938Z,13.88
2018-05-17T02:00:41.709Z,13.89
2018-05-17T02:01:51.845Z,13.88
2018-05-17T02:03:01.713Z,13.82
2018-05-17T02:04:11.854Z,13.85
2018-05-17T02:05:21.991Z,13.85
2018-05-17T02:06:31.883Z,13.81
2018-05-17T02:07:42.018Z,13.82
2018-05-17T02:08:51.943Z,13.77
2018-05-17T02:10:01.804Z,13.85
2018-05-17T02:11:12.024Z,13.73
2018-05-17T02:12:21.897Z,13.71
2018-05-17T02:13:32.064Z,13.66
2018-05-17T02:14:42.388Z,13.73
2018-05-17T02:15:52.413Z,13.69
2018-05-17T02:17:02.175Z,13.63
2018-05-17T02:18:12.300Z,13.63
2018-05-17T02:19:22.479Z,13.56
2018-05-17T02:20:33.580Z,13.59
2018-05-17T02:21:43.735Z,13.63
2018-05-17T02:22:53.496Z,13.58
2018-05-17T02:24:03.650Z,13.52
2018-05-17T02:25:13.759Z,13.49
2018-05-17T02:26:23.650Z,13.54
2018-05-17T02:27:33.785Z,13.52
2018-05-17T02:28:44.972Z,13.48
2018-05-17T02:29:55.188Z,13.51
2018-05-17T02:31:05.048Z,13.49
2018-05-17T02:32:15.211Z,13.49
2018-05-17T02:33:25.353Z,13.41
2018-05-17T02:34:35.578Z,13.4
2018-05-17T02:35:45.784Z,13.45
2018-05-17T02:36:55.938Z,13.4
2018-05-17T02:38:06.210Z,13.44
2018-05-17T02:39:16.362Z,13.46
2018-05-17T02:40:26.499Z,13.36
2018-05-17T02:41:36.642Z,13.36
2018-05-17T02:42:46.783Z,13.34
2018-05-17T02:43:56.919Z,13.37
2018-05-17T02:45:07.113Z,13.37
2018-05-17T02:46:17.286Z,13.38
2018-05-17T02:47:27.157Z,13.33
2018-05-17T02:48:37.039Z,13.3
2018-05-17T02:49:47.214Z,13.29
2018-05-17T02:50:57.340Z,13.26
2018-05-17T02:52:07.515Z,13.23
2018-05-17T02:53:17.649Z,13.22
2018-05-17T02:54:27.831Z,13.18
2018-05-17T02:55:37.988Z,13.13
2018-05-17T02:56:48.114Z,13.03
2018-05-17T02:57:58.258Z,13.08
2018-05-17T02:59:08.437Z,13.08
2018-05-17T03:00:18.599Z,12.9
2018-05-17T03:01:28.756Z,12.89
2018-05-17T03:02:38.898Z,12.84
2018-05-17T03:03:49.074Z,12.82
2018-05-17T03:05:00.234Z,12.77
2018-05-17T03:06:11.116Z,12.71
2018-05-17T03:07:21.396Z,12.72
2018-05-17T03:08:31.556Z,12.6
2018-05-17T03:09:41.747Z,12.6
2018-05-17T03:10:51.912Z,12.63
2018-05-17T03:12:02.089Z,12.57
2018-05-17T03:13:12.217Z,12.59
2018-05-17T03:14:22.333Z,12.53
2018-05-17T03:15:32.491Z,12.59
2018-05-17T03:16:42.363Z,12.47
2018-05-17T03:17:52.520Z,12.45
2018-05-17T03:19:02.423Z,12.47
2018-05-17T03:20:12.565Z,12.44
2018-05-17T03:21:22.705Z,12.52
2018-05-17T03:22:32.871Z,12.5
2018-05-17T03:23:43.004Z,12.39
2018-05-17T03:24:53.232Z,12.44
2018-05-17T03:26:03.373Z,12.39
2018-05-17T03:27:13.244Z,12.37
2018-05-17T03:28:23.417Z,12.32
2018-05-17T03:29:33.548Z,12.24
2018-05-17T03:30:43.695Z,12.26
2018-05-17T03:31:53.892Z,12.31
2018-05-17T03:33:04.049Z,12.2
2018-05-17T03:34:14.175Z,12.22
2018-05-17T03:35:24.299Z,12.26
2018-05-17T03:36:34.431Z,12.19
2018-05-17T03:37:44.595Z,12.19
2018-05-17T03:38:54.473Z,12.19
2018-05-17T03:40:04.812Z,12.09
2018-05-17T03:41:14.927Z,12.13
2018-05-17T03:42:24.785Z,12.07
2018-05-17T03:43:34.897Z,12.08
2018-05-17T03:44:44.764Z,12.08
2018-05-17T03:45:54.907Z,12.08
2018-05-17T03:47:05.063Z,12.07
2018-05-17T03:48:15.197Z,12.07
2018-05-17T03:49:25.015Z,12.07
2018-05-17T03:50:34.883Z,11.99
2018-05-17T03:51:45.017Z,11.97
2018-05-17T03:52:55.140Z,11.95
2018-05-17T03:54:05.335Z,11.9
2018-05-17T03:55:15.549Z,11.9
2018-05-17T03:56:25.155Z,11.9
2018-05-17T03:57:35.292Z,11.95
2018-05-17T03:58:45.442Z,11.87
2018-05-17T03:59:55.623Z,11.86
2018-05-17T04:01:05.782Z,11.77
2018-05-17T04:02:15.944Z,11.77
2018-05-17T04:03:25.811Z,11.72
2018-05-17T04:04:35.955Z,11.65
2018-05-17T04:05:46.107Z,11.69
2018-05-17T04:06:56.333Z,11.61
2018-05-17T04:08:06.540Z,11.62
2018-05-17T04:09:16.511Z,11.53
2018-05-17T04:10:26.392Z,11.43
2018-05-17T04:11:36.767Z,11.49
2018-05-17T04:12:46.712Z,11.43
2018-05-17T04:13:57.207Z,11.43
2018-05-17T04:15:07.607Z,11.38
2018-05-17T04:16:17.734Z,11.42
2018-05-17T04:17:27.910Z,11.34
2018-05-17T04:18:37.799Z,11.39
2018-05-17T04:19:47.942Z,11.35
2018-05-17T04:20:58.006Z,11.38
2018-05-17T04:22:08.162Z,11.39
2018-05-17T04:23:18.408Z,11.3
2018-05-17T04:24:28.599Z,11.28
2018-05-17T04:25:38.737Z,11.27
2018-05-17T04:26:49.100Z,11.23
2018-05-17T04:27:59.267Z,11.2
2018-05-17T04:29:09.235Z,11.17
2018-05-17T04:30:19.389Z,11.2
2018-05-17T04:31:29.547Z,11.16
2018-05-17T04:32:39.730Z,11.15
2018-05-17T04:33:49.606Z,11.09
2018-05-17T04:34:59.740Z,11.03
2018-05-17T04:36:09.925Z,11.05
2018-05-17T04:37:20.069Z,11
2018-05-17T04:38:30.316Z,11.06
2018-05-17T04:39:40.234Z,10.97
2018-05-17T04:40:50.361Z,10.98
2018-05-17T04:42:00.495Z,10.97
2018-05-17T04:43:10.777Z,10.88
2018-05-17T04:44:21.095Z,10.92
2018-05-17T04:45:31.273Z,10.92
2018-05-17T04:46:40.913Z,10.92
2018-05-17T04:47:51.139Z,10.97
2018-05-17T04:49:01.443Z,10.79
2018-05-17T04:50:11.315Z,10.87
2018-05-17T04:51:21.308Z,10.84
2018-05-17T04:52:31.588Z,10.85
2018-05-17T04:53:41.802Z,10.84
2018-05-17T04:54:52.244Z,10.84
2018-05-17T04:56:02.402Z,10.84
2018-05-17T04:57:12.571Z,10.88
2018-05-17T04:58:22.694Z,10.76
2018-05-17T04:59:32.934Z,10.77
2018-05-17T05:00:43.193Z,10.85
2018-05-17T05:01:53.356Z,10.8
2018-05-17T05:03:03.843Z,10.83
2018-05-17T05:04:14.195Z,10.84
2018-05-17T05:05:24.015Z,10.84
2018-05-17T05:06:33.882Z,10.87
2018-05-17T05:07:44.034Z,10.91
2018-05-17T05:08:53.852Z,10.87
2018-05-17T05:10:04.003Z,10.91
2018-05-17T05:11:14.134Z,10.87
2018-05-17T05:12:24.345Z,10.84
2018-05-17T05:13:34.628Z,10.76
2018-05-17T05:14:44.829Z,10.87
2018-05-17T05:15:55.133Z,10.84
2018-05-17T05:17:05.271Z,10.83
2018-05-17T05:18:15.541Z,10.87
2018-05-17T05:19:25.682Z,10.85
2018-05-17T05:20:35.899Z,10.85
2018-05-17T05:21:46.078Z,10.83
2018-05-17T05:22:56.313Z,10.83
2018-05-17T05:24:06.544Z,10.79
2018-05-17T05:25:17.107Z,10.75
2018-05-17T05:26:27.551Z,10.9
2018-05-17T05:27:37.728Z,10.97
2018-05-17T05:28:47.968Z,10.94
2018-05-17T05:29:58.181Z,10.88
2018-05-17T05:31:08.363Z,10.91
2018-05-17T05:32:18.551Z,10.98
2018-05-17T05:33:28.426Z,10.91
2018-05-17T05:34:38.640Z,10.9
2018-05-17T05:35:48.838Z,11.02
2018-05-17T05:36:58.727Z,10.98
2018-05-17T05:38:08.847Z,11.03
2018-05-17T05:39:18.979Z,11.03
2018-05-17T05:40:28.783Z,11.12
2018-05-17T05:41:38.992Z,11.16
2018-05-17T05:42:48.858Z,11.15
2018-05-17T05:43:58.994Z,11.16
2018-05-17T05:45:09.195Z,11.17
2018-05-17T05:46:19.325Z,11.24
2018-05-17T05:47:29.491Z,11.23
2018-05-17T05:48:39.769Z,11.2
2018-05-17T05:49:49.967Z,11.15
2018-05-17T05:51:00.239Z,11.1
2018-05-17T05:52:11.379Z,11.15
2018-05-17T05:53:21.612Z,11.17
2018-05-17T05:54:31.907Z,11.16
2018-05-17T05:55:41.830Z,11.28
2018-05-17T05:56:53.153Z,11.17
2018-05-17T05:58:03.273Z,11.2
2018-05-17T05:59:13.403Z,11.31
2018-05-17T06:00:23.564Z,11.3
2018-05-17T06:01:33.855Z,11.27
2018-05-17T06:02:44.017Z,11.16
2018-05-17T06:03:54.151Z,11.17
2018-05-17T06:05:03.683Z,11.21
2018-05-17T06:06:13.574Z,11.21
2018-05-17T06:07:23.867Z,11.28
2018-05-17T06:08:34.073Z,11.33
2018-05-17T06:09:43.943Z,11.31
2018-05-17T06:10:54.065Z,11.48
2018-05-17T06:12:04.225Z,11.38
2018-05-17T06:13:14.428Z,11.5
2018-05-17T06:14:24.678Z,11.46
2018-05-17T06:15:34.546Z,11.43
2018-05-17T06:16:44.676Z,11.48
2018-05-17T06:17:54.847Z,11.5
2018-05-17T06:19:04.526Z,11.49
2018-05-17T06:20:14.770Z,11.61
2018-05-17T06:21:24.930Z,11.58
2018-05-17T06:22:36.126Z,11.64
2018-05-17T06:23:46.425Z,11.62
2018-05-17T06:24:56.788Z,11.69
2018-05-17T06:26:06.954Z,11.69
2018-05-17T06:27:17.105Z,11.76
2018-05-17T06:28:26.651Z,11.72
2018-05-17T06:29:36.540Z,11.79
2018-05-17T06:30:46.721Z,11.76
2018-05-17T06:31:57.836Z,11.8
2018-05-17T06:33:07.962Z,11.77
2018-05-17T06:34:18.090Z,11.83
2018-05-17T06:35:27.976Z,11.89
2018-05-17T06:36:38.431Z,11.89
2018-05-17T06:37:48.724Z,12.08
2018-05-17T06:38:58.884Z,12.05
2018-05-17T06:40:09.084Z,12.08
2018-05-17T06:41:19.302Z,12.07
2018-05-17T06:42:29.550Z,12.04
2018-05-17T06:43:39.757Z,12.11
2018-05-17T06:44:49.936Z,12.17
2018-05-17T06:46:00.100Z,12.08
2018-05-17T06:47:10.387Z,12.08
2018-05-17T06:48:20.634Z,12.08
2018-05-17T06:49:30.781Z,12.19
2018-05-17T06:50:41.061Z,12.26
2018-05-17T06:51:51.451Z,12.27
2018-05-17T06:53:01.764Z,12.34
2018-05-17T06:54:11.912Z,12.45
2018-05-17T06:55:21.676Z,12.5
2018-05-17T06:56:31.428Z,12.53
2018-05-17T06:57:41.438Z,12.53
2018-05-17T06:58:51.633Z,12.53
2018-05-17T07:00:01.795Z,12.55
2018-05-17T07:01:12.258Z,12.57
2018-05-17T07:02:22.760Z,12.6
2018-05-17T07:03:32.658Z,12.63
2018-05-17T07:04:42.797Z,12.81
2018-05-17T07:05:53.051Z,12.81
2018-05-17T07:07:03.259Z,12.78
2018-05-17T07:08:13.561Z,12.89
2018-05-17T07:09:23.322Z,12.9
2018-05-17T07:10:33.578Z,12.9
2018-05-17T07:11:43.728Z,13.06
2018-05-17T07:12:53.963Z,13.04
2018-05-17T07:14:04.128Z,13.13
2018-05-17T07:15:14.066Z,13.21
2018-05-17T07:16:23.989Z,13.29
2018-05-17T07:17:34.169Z,13.33
2018-05-17T07:18:45.738Z,13.4
2018-05-17T07:19:56.591Z,13.54
2018-05-17T07:21:06.938Z,13.52
2018-05-17T07:22:17.109Z,13.56
2018-05-17T07:23:27.346Z,13.58
2018-05-17T07:24:37.506Z,13.58
2018-05-17T07:25:47.927Z,13.58
2018-05-17T07:26:58.095Z,13.74
2018-05-17T07:28:08.244Z,13.76
2018-05-17T07:29:18.419Z,13.69
2018-05-17T07:30:28.626Z,13.54
2018-05-17T07:31:38.688Z,13.63
2018-05-17T07:32:48.701Z,13.67
2018-05-17T07:33:58.618Z,13.59
2018-05-17T07:35:08.768Z,13.64
2018-05-17T07:36:18.906Z,13.54
2018-05-17T07:37:29.070Z,13.56
2018-05-17T07:38:39.227Z,13.49
2018-05-17T07:39:49.513Z,13.49
2018-05-17T07:40:59.681Z,13.52
2018-05-17T07:42:09.889Z,13.63
2018-05-17T07:43:20.094Z,13.69
2018-05-17T07:44:29.889Z,13.82
2018-05-17T07:45:40.049Z,13.89
2018-05-17T07:46:50.064Z,13.99
2018-05-17T07:48:00.474Z,14
2018-05-17T07:49:10.709Z,14
2018-05-17T07:50:20.600Z,14.11
2018-05-17T07:51:30.801Z,14.14
2018-05-17T07:52:40.951Z,14.07
2018-05-17T07:53:51.125Z,14.02
2018-05-17T07:55:00.997Z,14.03
2018-05-17T07:56:11.159Z,14
2018-05-17T07:57:21.309Z,14.03
2018-05-17T07:58:31.438Z,14.02
2018-05-17T07:59:41.311Z,14.11
2018-05-17T08:00:51.542Z,14.09
2018-05-17T08:02:01.707Z,14.14
2018-05-17T08:03:11.993Z,14.13
2018-05-17T08:04:21.877Z,14.21
2018-05-17T08:05:32.011Z,14.14
2018-05-17T08:06:42.181Z,14.24
2018-05-17T08:07:52.335Z,14.28
2018-05-17T08:09:02.545Z,14.4
2018-05-17T08:10:12.467Z,14.28
2018-05-17T08:11:22.649Z,14.29
2018-05-17T08:12:32.787Z,14.24
2018-05-17T08:13:42.981Z,14.43
2018-05-17T08:14:53.189Z,14.37
2018-05-17T08:16:03.388Z,14.37
2018-05-17T08:17:13.649Z,14.54
2018-05-17T08:18:23.903Z,14.52
2018-05-17T08:19:34.042Z,14.58
2018-05-17T08:20:44.287Z,14.54
2018-05-17T08:21:54.531Z,14.52
2018-05-17T08:23:04.434Z,14.56
2018-05-17T08:24:14.321Z,14.52
2018-05-17T08:25:24.466Z,14.66
2018-05-17T08:26:34.612Z,14.62
2018-05-17T08:27:44.748Z,14.69
2018-05-17T08:28:55.075Z,14.75
2018-05-17T08:30:05.372Z,14.93
2018-05-17T08:31:15.574Z,15
2018-05-17T08:32:25.711Z,14.98
2018-05-17T08:33:35.845Z,15.08
2018-05-17T08:34:46.046Z,15.25
2018-05-17T08:35:56.250Z,15.36
2018-05-17T08:37:06.522Z,15.53
2018-05-17T08:38:16.690Z,15.84
2018-05-17T08:39:26.818Z,16.38
2018-05-17T08:40:37.116Z,16.79
2018-05-17T08:41:47.462Z,17.23
2018-05-17T08:42:57.483Z,17.52
2018-05-17T08:44:07.791Z,17.83
2018-05-17T08:45:17.703Z,17.82
2018-05-17T08:46:27.625Z,17.6
2018-05-17T08:47:37.780Z,17.39
2018-05-17T08:48:47.730Z,17.24
2018-05-17T08:49:57.921Z,17.3
2018-05-17T08:51:08.151Z,17.4
2018-05-17T08:52:18.313Z,17.35
2018-05-17T08:53:28.484Z,17.36
2018-05-17T08:54:38.631Z,17.62
2018-05-17T08:55:48.771Z,17.87
2018-05-17T08:56:58.922Z,17.94
2018-05-17T08:58:08.601Z,17.97
2018-05-17T08:59:18.775Z,18.04
2018-05-17T09:00:28.916Z,18.34
2018-05-17T09:01:39.118Z,18.34
2018-05-17T09:02:49.366Z,18.37
2018-05-17T09:03:59.635Z,18.44
2018-05-17T09:05:09.878Z,18.55
2018-05-17T09:06:20.307Z,18.41
2018-05-17T09:07:30.213Z,18.47
2018-05-17T09:08:40.427Z,18.55
2018-05-17T09:09:50.223Z,18.5
2018-05-17T09:11:00.375Z,18.5
2018-05-17T09:12:10.385Z,18.37
2018-05-17T09:13:20.554Z,18.4
2018-05-17T09:14:30.764Z,18.55
2018-05-17T09:15:40.940Z,18.78
2018-05-17T09:16:51.099Z,19.09
2018-05-17T09:18:01.300Z,19.23
2018-05-17T09:19:11.503Z,19.34
2018-05-17T09:20:21.636Z,19.37
2018-05-17T09:21:32.017Z,19.35
2018-05-17T09:22:42.177Z,19.31
2018-05-17T09:23:52.054Z,19.25
2018-05-17T09:25:02.216Z,19.35
2018-05-17T09:26:12.124Z,19.46
2018-05-17T09:27:22.266Z,19.61
2018-05-17T09:28:32.414Z,19.86
2018-05-17T09:29:42.321Z,19.88
2018-05-17T09:30:52.714Z,19.89
2018-05-17T09:32:02.899Z,19.93
2018-05-17T09:33:13.148Z,19.98
2018-05-17T09:34:23.374Z,20.04
2018-05-17T09:35:33.665Z,20.08
2018-05-17T09:36:43.631Z,20.31
2018-05-17T09:37:54.409Z,20.35
2018-05-17T09:39:05.814Z,20.42
2018-05-17T09:40:16.016Z,20.49
2018-05-17T09:41:26.419Z,20.68
2018-05-17T09:42:36.616Z,20.68
2018-05-17T09:43:46.553Z,20.71
2018-05-17T09:44:56.772Z,20.72
2018-05-17T09:46:07.010Z,20.67
2018-05-17T09:47:17.214Z,20.83
2018-05-17T09:48:27.439Z,20.82
2018-05-17T09:49:37.241Z,20.81
2018-05-17T09:50:47.139Z,20.61
2018-05-17T09:51:57.375Z,20.53
2018-05-17T09:53:07.531Z,20.53
2018-05-17T09:54:17.418Z,20.49
2018-05-17T09:55:27.311Z,20.56
2018-05-17T09:56:37.509Z,20.58
2018-05-17T09:57:47.708Z,20.61
2018-05-17T09:58:57.596Z,20.56
2018-05-17T10:00:07.734Z,20.3
2018-05-17T10:01:17.891Z,19.95
2018-05-17T10:02:28.076Z,19.79
2018-05-17T10:03:38.028Z,19.48
2018-05-17T10:04:48.258Z,19.45
2018-05-17T10:05:58.464Z,19.48
2018-05-17T10:07:08.665Z,19.39
2018-05-17T10:08:18.833Z,19.49
2018-05-17T10:09:29.076Z,19.53
2018-05-17T10:10:39.257Z,19.4
2018-05-17T10:11:49.652Z,19.45
2018-05-17T10:12:59.816Z,19.4
2018-05-17T10:14:09.983Z,19.53
2018-05-17T10:15:20.275Z,19.49
2018-05-17T10:16:30.474Z,19.76
2018-05-17T10:17:40.695Z,19.88
2018-05-17T10:18:50.872Z,19.98
2018-05-17T10:20:00.785Z,19.98
2018-05-17T10:21:10.923Z,20
2018-05-17T10:22:20.824Z,20.03
2018-05-17T10:23:31.073Z,19.86
2018-05-17T10:24:41.247Z,19.6
2018-05-17T10:25:51.391Z,19.55
2018-05-17T10:27:01.595Z,19.56
2018-05-17T10:28:11.746Z,19.55
2018-05-17T10:29:21.969Z,19.35
2018-05-17T10:30:32.270Z,19.42
2018-05-17T10:31:42.417Z,19.53
2018-05-17T10:32:52.050Z,19.63
2018-05-17T10:34:02.225Z,19.7
2018-05-17T10:35:12.289Z,19.82
2018-05-17T10:36:22.467Z,19.92
2018-05-17T10:37:32.356Z,20.04
2018-05-17T10:38:42.251Z,20.05
2018-05-17T10:39:52.142Z,20.05
2018-05-17T10:41:02.277Z,20.12
2018-05-17T10:42:12.565Z,20.17
2018-05-17T10:43:23.019Z,20.27
2018-05-17T10:44:33.275Z,20.34
2018-05-17T10:45:43.499Z,20.36
2018-05-17T10:46:53.800Z,20.42
2018-05-17T10:48:04.003Z,20.64
2018-05-17T10:49:14.185Z,20.75
2018-05-17T10:50:24.470Z,20.86
2018-05-17T10:51:34.624Z,20.91
2018-05-17T10:52:44.860Z,20.86
2018-05-17T10:53:55.111Z,20.88
2018-05-17T10:55:05.336Z,20.97
2018-05-17T10:56:15.516Z,20.9
2018-05-17T10:57:25.675Z,20.96
2018-05-17T10:58:35.857Z,21.04
2018-05-17T10:59:46.039Z,21.18
2018-05-17T11:00:56.178Z,21.08
2018-05-17T11:02:06.332Z,21.1
2018-05-17T11:03:16.464Z,21
2018-05-17T11:04:26.616Z,20.85
2018-05-17T11:05:36.830Z,20.83
2018-05-17T11:06:47.045Z,20.75
2018-05-17T11:07:57.249Z,20.76
2018-05-17T11:09:07.475Z,20.86
2018-05-17T11:10:17.364Z,20.85
2018-05-17T11:11:27.291Z,20.86
2018-05-17T11:12:37.526Z,20.85
2018-05-17T11:13:47.681Z,20.93
2018-05-17T11:14:58.577Z,21.08
2018-05-17T11:16:08.877Z,21.09
2018-05-17T11:17:19.047Z,21.2
2018-05-17T11:18:29.277Z,21.34
2018-05-17T11:19:39.549Z,21.56
2018-05-17T11:20:49.461Z,21.58
2018-05-17T11:21:59.134Z,21.56
2018-05-17T11:23:09.208Z,21.68
2018-05-17T11:24:19.407Z,21.6
2018-05-17T11:25:29.270Z,21.56
2018-05-17T11:26:40.154Z,21.54
2018-05-17T11:27:50.297Z,21.54
2018-05-17T11:29:01.428Z,21.58
2018-05-17T11:30:11.086Z,21.58
2018-05-17T11:31:21.258Z,21.6
2018-05-17T11:32:31.466Z,21.58
2018-05-17T11:33:41.391Z,21.65
2018-05-17T11:34:51.562Z,21.75
2018-05-17T11:36:02.711Z,21.76
2018-05-17T11:37:12.889Z,21.83
2018-05-17T11:38:23.130Z,21.86
2018-05-17T11:39:33.423Z,21.84
2018-05-17T11:40:43.660Z,21.87
2018-05-17T11:41:54.641Z,21.76
2018-05-17T11:43:04.645Z,21.53
2018-05-17T11:44:15.150Z,21.5
2018-05-17T11:45:25.417Z,21.43
2018-05-17T11:46:35.614Z,21.38
2018-05-17T11:47:45.896Z,21.19
2018-05-17T11:48:56.065Z,21.13
2018-05-17T11:50:06.256Z,20.9
2018-05-17T11:51:16.557Z,20.94
2018-05-17T11:52:26.805Z,20.97
2018-05-17T11:53:37.027Z,21.06
2018-05-17T11:54:47.193Z,21.18
2018-05-17T11:55:57.139Z,21.15
2018-05-17T11:57:07.538Z,21.09
2018-05-17T11:58:17.444Z,21.12
2018-05-17T11:59:27.637Z,21
2018-05-17T12:00:37.838Z,21.01
2018-05-17T12:01:48.042Z,21.09
2018-05-17T12:02:58.304Z,21.08
2018-05-17T12:04:08.474Z,21.06
2018-05-17T12:05:18.402Z,21.04
2018-05-17T12:06:28.393Z,21.12
2018-05-17T12:07:39.007Z,21.18
2018-05-17T12:08:49.255Z,21.23
2018-05-17T12:09:59.615Z,21.41
2018-05-17T12:11:09.534Z,21.37
2018-05-17T12:12:19.692Z,21.41
2018-05-17T12:13:29.865Z,21.37
2018-05-17T12:14:40.009Z,21.34
2018-05-17T12:15:50.185Z,21.43
2018-05-17T12:17:00.480Z,21.43
2018-05-17T12:18:10.406Z,21.37
2018-05-17T12:19:20.576Z,21.28
2018-05-17T12:20:30.735Z,21.19
2018-05-17T12:21:40.936Z,21.13
2018-05-17T12:22:51.089Z,21.09
2018-05-17T12:24:01.117Z,20.98
2018-05-17T12:25:11.425Z,20.78
2018-05-17T12:26:21.671Z,20.79
2018-05-17T12:27:31.949Z,20.79
2018-05-17T12:28:42.091Z,20.73
2018-05-17T12:29:51.605Z,20.61
2018-05-17T12:31:01.766Z,20.49
2018-05-17T12:32:11.993Z,20.51
2018-05-17T12:33:22.145Z,20.43
2018-05-17T12:34:32.316Z,20.41
2018-05-17T12:35:42.239Z,20.42
2018-05-17T12:36:52.384Z,20.31
2018-05-17T12:38:02.583Z,20.36
2018-05-17T12:39:12.749Z,20.26
2018-05-17T12:40:22.917Z,20.3
2018-05-17T12:41:33.095Z,20.26
2018-05-17T12:42:43.014Z,20.21
2018-05-17T12:43:53.383Z,20.08
2018-05-17T12:45:03.322Z,20.23
2018-05-17T12:46:14.222Z,20.17
2018-05-17T12:47:24.248Z,20.16
2018-05-17T12:48:34.544Z,20.05
2018-05-17T12:49:44.731Z,20.04
2018-05-17T12:50:55.132Z,19.9
2018-05-17T12:52:05.608Z,19.89
2018-05-17T12:53:15.757Z,19.98
2018-05-17T12:54:25.922Z,19.97
2018-05-17T12:55:36.125Z,19.9
2018-05-17T12:56:46.494Z,19.83
2018-05-17T12:57:56.798Z,19.82
2018-05-17T12:59:06.959Z,19.82
2018-05-17T13:00:18.143Z,19.79
2018-05-17T13:01:28.302Z,19.61
2018-05-17T13:02:38.499Z,19.56
2018-05-17T13:03:48.811Z,19.63
2018-05-17T13:04:58.765Z,19.67
2018-05-17T13:06:08.974Z,19.46
2018-05-17T13:07:19.128Z,19.43
2018-05-17T13:08:29.259Z,19.45
2018-05-17T13:09:39.453Z,19.34
2018-05-17T13:10:49.623Z,19.46
2018-05-17T13:11:59.842Z,19.52
2018-05-17T13:13:10.241Z,19.53
2018-05-17T13:14:20.397Z,19.48
2018-05-17T13:15:30.649Z,19.55
2018-05-17T13:16:40.837Z,19.55
2018-05-17T13:17:52.011Z,19.6
2018-05-17T13:19:02.284Z,19.35
2018-05-17T13:20:12.174Z,19.27
2018-05-17T13:21:22.091Z,19.3
2018-05-17T13:22:31.797Z,19.23
2018-05-17T13:23:41.968Z,19.31
2018-05-17T13:24:52.471Z,19.23
2018-05-17T13:26:02.910Z,19.25
2018-05-17T13:27:13.240Z,19.28
2018-05-17T13:28:23.417Z,19.27
2018-05-17T13:29:33.650Z,19.33
2018-05-17T13:30:43.816Z,19.18
2018-05-17T13:31:54.031Z,18.98
2018-05-17T13:33:04.220Z,18.9
2018-05-17T13:34:14.385Z,18.98
2018-05-17T13:35:24.267Z,18.97
2018-05-17T13:36:34.579Z,19.15
2018-05-17T13:37:44.768Z,19.1
2018-05-17T13:38:54.692Z,19.09
2018-05-17T13:40:04.863Z,19.1
2018-05-17T13:41:15.033Z,19.18
2018-05-17T13:42:25.269Z,19.12
2018-05-17T13:43:35.434Z,18.93
2018-05-17T13:44:45.603Z,18.84
2018-05-17T13:45:55.782Z,18.69
2018-05-17T13:47:06.969Z,18.67
2018-05-17T13:48:16.963Z,18.73
2018-05-17T13:49:26.752Z,18.69
2018-05-17T13:50:36.911Z,18.71
2018-05-17T13:51:47.087Z,18.8
2018-05-17T13:52:56.982Z,18.86
2018-05-17T13:54:07.369Z,18.93
2018-05-17T13:55:17.615Z,18.84
2018-05-17T13:56:27.850Z,18.71
2018-05-17T13:57:38.008Z,18.6
2018-05-17T13:58:48.202Z,18.4
2018-05-17T13:59:58.363Z,18.41
2018-05-17T14:01:08.571Z,18.49
2018-05-17T14:02:18.671Z,18.5
2018-05-17T14:03:28.938Z,18.46
2018-05-17T14:04:39.193Z,18.5
2018-05-17T14:05:49.399Z,18.53
2018-05-17T14:06:59.577Z,18.6
2018-05-17T14:08:09.537Z,18.57
2018-05-17T14:09:19.696Z,18.56
2018-05-17T14:10:29.883Z,18.5
2018-05-17T14:11:40.234Z,18.47
2018-05-17T14:12:50.433Z,18.59
2018-05-17T14:14:00.708Z,18.59
2018-05-17T14:15:11.065Z,18.63
2018-05-17T14:16:21.729Z,18.69
2018-05-17T14:17:31.911Z,18.67
2018-05-17T14:18:42.105Z,18.65
2018-05-17T14:19:52.311Z,18.53
2018-05-17T14:21:02.584Z,18.49
2018-05-17T14:22:12.870Z,18.53
2018-05-17T14:23:23.015Z,18.42
2018-05-17T14:24:33.199Z,18.5
2018-05-17T14:25:43.090Z,18.53
2018-05-17T14:26:53.289Z,18.46
2018-05-17T14:28:03.458Z,18.57
2018-05-17T14:29:13.639Z,18.56
2018-05-17T14:30:23.815Z,18.56
2018-05-17T14:31:33.983Z,18.57
2018-05-17T14:32:44.339Z,18.59
2018-05-17T14:33:54.020Z,18.52
2018-05-17T14:35:04.205Z,18.38
2018-05-17T14:36:14.374Z,18.47
2018-05-17T14:37:24.555Z,18.4
2018-05-17T14:38:34.514Z,18.53
2018-05-17T14:39:44.795Z,18.53
2018-05-17T14:40:54.957Z,18.46
2018-05-17T14:42:05.012Z,18.35
2018-05-17T14:43:15.232Z,18.3
2018-05-17T14:44:25.459Z,18.32
2018-05-17T14:45:35.484Z,18.35
2018-05-17T14:46:45.692Z,18.38
2018-05-17T14:47:55.895Z,18.35
2018-05-17T14:49:06.805Z,18.35
2018-05-17T14:50:16.989Z,18.37
2018-05-17T14:51:27.153Z,18.41
2018-05-17T14:52:37.487Z,18.31
2018-05-17T14:53:48.622Z,18.4
2018-05-17T14:54:59.892Z,18.38
2018-05-17T14:56:10.261Z,18.35
2018-05-17T14:57:20.440Z,18.4
2018-05-17T14:58:30.351Z,18.37
2018-05-17T14:59:40.503Z,18.56
2018-05-17T15:00:50.678Z,18.4
2018-05-17T15:02:00.760Z,18.41
2018-05-17T15:03:11.009Z,18.41
2018-05-17T15:04:21.194Z,18.49
2018-05-17T15:05:31.478Z,18.57
2018-05-17T15:06:41.696Z,18.49
2018-05-17T15:07:51.995Z,18.42